createdAt,value
2023-05-14T00:01:04.047Z,29.00
2023-05-14T00:03:32.022Z,28.00
2023-05-14T00:05:59.986Z,30.50
2023-05-14T00:08:27.844Z,32.50
2023-05-14T00:10:55.779Z,28.00
2023-05-14T00:13:23.934Z,30.00
2023-05-14T00:18:19.824Z,29.00
2023-05-14T00:20:47.858Z,28.50
2023-05-14T00:23:16.224Z,28.00
2023-05-14T00:25:44.099Z,25.00
2023-05-14T00:28:12.003Z,31.00
2023-05-14T00:30:40.284Z,30.50
2023-05-14T00:33:08.455Z,25.50
2023-05-14T00:35:36.752Z,30.50
2023-05-14T00:38:04.745Z,23.00
2023-05-14T00:40:32.889Z,25.00
2023-05-14T00:43:01.565Z,30.00
2023-05-14T00:45:29.428Z,30.00
2023-05-14T00:47:57.417Z,28.50
2023-05-14T00:50:26.279Z,26.00
2023-05-14T00:52:54.661Z,27.00
2023-05-14T00:55:22.572Z,28.00
2023-05-14T00:57:50.491Z,28.00
2023-05-14T01:00:19.231Z,28.00
2023-05-14T01:02:47.391Z,27.67
2023-05-14T01:07:59.374Z,29.50
2023-05-14T01:10:39.684Z,34.50
2023-05-14T01:13:16.163Z,28.50
2023-05-14T01:15:44.167Z,29.50
2023-05-14T01:18:14.325Z,26.00
2023-05-14T01:20:42.391Z,31.00
2023-05-14T01:23:10.285Z,28.00
2023-05-14T01:25:38.495Z,32.50
2023-05-14T01:28:18.015Z,30.00
2023-05-14T01:31:00.973Z,27.00
2023-05-14T01:33:29.692Z,32.00
2023-05-14T01:35:58.850Z,28.00
2023-05-14T01:38:27.611Z,34.00
2023-05-14T01:40:55.696Z,30.00
2023-05-14T01:43:24.230Z,31.00
2023-05-14T01:45:52.223Z,28.00
2023-05-14T01:48:20.121Z,27.00
2023-05-14T01:50:48.192Z,29.00
2023-05-14T01:53:16.038Z,26.00
2023-05-14T01:55:43.900Z,31.00
2023-05-14T01:58:11.919Z,34.00
2023-05-14T02:00:39.802Z,32.00
2023-05-14T02:03:07.778Z,33.00
2023-05-14T02:05:35.954Z,33.00
2023-05-14T02:08:03.949Z,37.00
2023-05-14T02:10:31.829Z,31.50
2023-05-14T02:12:59.793Z,35.67
2023-05-14T02:15:28.428Z,34.00
2023-05-14T02:17:56.600Z,31.67
2023-05-14T02:20:24.911Z,33.33
2023-05-14T02:22:53.203Z,34.00
2023-05-14T02:25:21.703Z,35.00
2023-05-14T02:27:49.752Z,37.00
2023-05-14T02:30:18.341Z,33.50
2023-05-14T02:32:46.412Z,37.00
2023-05-14T02:35:14.303Z,35.00
2023-05-14T02:37:42.557Z,35.00
2023-05-14T02:40:11.449Z,35.00
2023-05-14T02:42:39.516Z,36.50
2023-05-14T02:45:08.215Z,32.50
2023-05-14T02:47:37.974Z,34.33
2023-05-14T02:50:07.463Z,37.33
2023-05-14T02:52:35.995Z,35.00
2023-05-14T02:55:04.979Z,32.00
2023-05-14T02:57:33.031Z,35.50
2023-05-14T03:00:01.505Z,34.00
2023-05-14T03:02:30.511Z,37.50
2023-05-14T03:04:59.763Z,37.00
2023-05-14T03:07:27.868Z,35.50
2023-05-14T03:09:55.999Z,34.50
2023-05-14T03:12:23.836Z,35.50
2023-05-14T03:14:51.911Z,36.00
2023-05-14T03:17:20.026Z,34.00
2023-05-14T03:19:48.053Z,35.67
2023-05-14T03:24:43.992Z,33.50
2023-05-14T03:27:12.063Z,33.00
2023-05-14T03:29:39.950Z,33.00
2023-05-14T03:32:07.924Z,33.50
2023-05-14T03:34:35.980Z,34.00
2023-05-14T03:37:04.448Z,34.00
2023-05-14T03:42:00.334Z,29.00
2023-05-14T03:44:28.266Z,34.00
2023-05-14T03:46:56.280Z,31.50
2023-05-14T03:49:24.984Z,29.00
2023-05-14T03:51:52.840Z,27.00
2023-05-14T03:54:20.944Z,34.50
2023-05-14T03:56:48.801Z,32.00
2023-05-14T03:59:16.780Z,33.00
2023-05-14T04:01:44.855Z,32.00
2023-05-14T04:04:12.836Z,32.00
2023-05-14T04:06:41.027Z,31.00
2023-05-14T04:09:11.017Z,33.00
2023-05-14T04:11:39.187Z,29.00
2023-05-14T04:14:07.465Z,30.00
2023-05-14T04:16:35.691Z,34.00
2023-05-14T04:19:05.784Z,33.00
2023-05-14T04:21:33.824Z,32.00
2023-05-14T04:24:01.890Z,30.00
2023-05-14T04:26:29.732Z,35.00
2023-05-14T04:28:58.446Z,30.50
2023-05-14T04:31:26.314Z,31.00
2023-05-14T04:33:54.372Z,34.00
2023-05-14T04:36:22.348Z,29.00
2023-05-14T04:38:50.831Z,29.00
2023-05-14T04:41:18.757Z,30.00
2023-05-14T04:43:47.331Z,31.00
2023-05-14T04:46:15.614Z,33.00
2023-05-14T04:48:43.822Z,33.50
2023-05-14T04:51:11.811Z,33.00
2023-05-14T04:53:39.766Z,28.00
2023-05-14T04:56:07.780Z,30.00
2023-05-14T04:58:36.112Z,34.00
2023-05-14T05:01:05.232Z,30.00
2023-05-14T05:03:33.453Z,25.33
2023-05-14T05:06:01.460Z,30.00
2023-05-14T05:08:29.559Z,30.00
2023-05-14T05:10:57.364Z,31.00
2023-05-14T05:13:25.353Z,31.50
2023-05-14T05:15:53.185Z,31.00
2023-05-14T05:18:21.297Z,33.00
2023-05-14T05:20:49.191Z,32.00
2023-05-14T05:23:17.128Z,28.00
2023-05-14T05:25:44.949Z,29.00
2023-05-14T05:28:12.834Z,29.50
2023-05-14T05:30:41.090Z,28.00
2023-05-14T05:33:09.221Z,33.00
2023-05-14T05:35:37.911Z,31.50
2023-05-14T05:38:05.862Z,33.50
2023-05-14T05:40:34.145Z,35.00
2023-05-14T05:43:02.311Z,32.00
2023-05-14T05:47:58.182Z,36.00
2023-05-14T05:50:26.380Z,34.00
2023-05-14T05:52:54.296Z,34.00
2023-05-14T05:55:22.358Z,30.50
2023-05-14T05:57:50.468Z,30.00
2023-05-14T06:00:19.424Z,35.00
2023-05-14T06:02:47.259Z,30.00
2023-05-14T06:05:15.400Z,35.00
2023-05-14T06:07:43.370Z,33.50
2023-05-14T06:10:11.407Z,31.00
2023-05-14T06:12:39.470Z,37.50
2023-05-14T06:15:08.004Z,28.00
2023-05-14T06:17:35.976Z,34.00
2023-05-14T06:20:05.596Z,33.67
2023-05-14T06:22:34.397Z,32.00
2023-05-14T06:25:02.305Z,30.00
2023-05-14T06:27:30.782Z,28.00
2023-05-14T06:29:58.726Z,31.50
2023-05-14T06:32:26.619Z,33.00
2023-05-14T06:34:54.620Z,33.00
2023-05-14T06:37:22.576Z,29.00
2023-05-14T06:39:51.014Z,32.00
2023-05-14T06:42:19.093Z,36.00
2023-05-14T06:44:48.689Z,30.00
2023-05-14T06:47:16.683Z,33.00
2023-05-14T06:49:44.838Z,30.50
2023-05-14T06:52:12.814Z,24.50
2023-05-14T06:54:40.872Z,23.00
2023-05-14T06:57:08.933Z,32.00
2023-05-14T07:02:04.778Z,33.50
2023-05-14T07:04:33.213Z,25.00
2023-05-14T07:07:01.442Z,35.00
2023-05-14T07:09:29.366Z,28.00
2023-05-14T07:11:57.282Z,23.00
2023-05-14T07:14:25.443Z,24.50
2023-05-14T07:16:53.438Z,20.50
2023-05-14T07:19:22.373Z,23.00
2023-05-14T07:21:51.038Z,23.50
2023-05-14T07:24:19.256Z,27.00
2023-05-14T07:26:47.334Z,25.00
2023-05-14T07:29:15.506Z,27.00
2023-05-14T07:31:43.638Z,26.50
2023-05-14T07:34:12.769Z,21.00
2023-05-14T07:36:41.353Z,22.00
2023-05-14T07:39:09.538Z,17.00
2023-05-14T07:41:37.694Z,21.00
2023-05-14T07:44:05.835Z,18.00
2023-05-14T07:46:34.059Z,22.00
2023-05-14T07:49:02.102Z,21.00
2023-05-14T07:51:30.461Z,24.00
2023-05-14T07:53:58.453Z,26.00
2023-05-14T07:56:26.431Z,26.00
2023-05-14T07:58:54.514Z,22.00
2023-05-14T08:01:22.563Z,23.00
2023-05-14T08:03:50.941Z,21.00
2023-05-14T08:06:21.062Z,26.50
2023-05-14T08:08:49.287Z,21.00
2023-05-14T08:13:45.700Z,22.00
2023-05-14T08:16:13.657Z,22.00
2023-05-14T08:18:41.707Z,19.00
2023-05-14T08:21:09.905Z,22.50
2023-05-14T08:23:37.861Z,21.00
2023-05-14T08:26:05.965Z,19.00
2023-05-14T08:28:34.097Z,19.50
2023-05-14T08:31:01.924Z,21.50
2023-05-14T08:33:29.951Z,20.00
2023-05-14T08:36:00.494Z,20.00
2023-05-14T08:41:00.721Z,20.00
2023-05-14T08:43:48.860Z,18.00
2023-05-14T08:46:16.725Z,19.00
2023-05-14T08:48:44.755Z,22.00
2023-05-14T08:51:12.841Z,17.00
2023-05-14T08:53:40.937Z,16.50
2023-05-14T08:56:09.218Z,19.00
2023-05-14T08:58:37.397Z,19.50
2023-05-14T09:01:05.857Z,18.00
2023-05-14T09:03:33.840Z,19.00
2023-05-14T09:06:02.311Z,16.50
2023-05-14T09:08:30.802Z,17.00
2023-05-14T09:10:58.767Z,17.00
2023-05-14T09:13:28.299Z,22.00
2023-05-14T09:15:56.374Z,18.00
2023-05-14T09:18:25.367Z,19.00
2023-05-14T09:20:53.819Z,20.00
2023-05-14T09:23:21.775Z,18.00
2023-05-14T09:25:49.597Z,15.33
2023-05-14T09:28:18.605Z,18.00
2023-05-14T09:30:52.567Z,19.00
2023-05-14T09:33:27.366Z,23.00
2023-05-14T09:35:58.855Z,19.00
2023-05-14T09:38:30.966Z,22.00
2023-05-14T09:40:59.789Z,19.00
2023-05-14T09:43:28.458Z,23.00
2023-05-14T09:45:57.978Z,18.00
2023-05-14T09:48:26.414Z,18.00
2023-05-14T09:50:54.391Z,18.00
2023-05-14T09:53:22.282Z,18.00
2023-05-14T09:55:50.968Z,13.50
2023-05-14T09:58:19.025Z,20.00
2023-05-14T10:00:48.194Z,16.00
2023-05-14T10:03:18.826Z,14.00
2023-05-14T10:05:48.768Z,13.25
2023-05-14T10:08:26.901Z,20.00
2023-05-14T10:10:56.188Z,16.00
2023-05-14T10:13:24.884Z,17.00
2023-05-14T10:16:08.904Z,17.00
2023-05-14T10:18:41.410Z,16.00
2023-05-14T10:21:09.429Z,17.00
2023-05-14T10:23:38.188Z,13.50
2023-05-14T10:26:06.318Z,14.00
2023-05-14T10:28:34.447Z,16.00
2023-05-14T10:31:02.473Z,17.00
2023-05-14T10:33:30.502Z,17.00
2023-05-14T10:36:03.728Z,16.00
2023-05-14T10:38:38.287Z,13.00
2023-05-14T10:41:10.217Z,19.00
2023-05-14T10:43:39.045Z,16.00
2023-05-14T10:46:08.279Z,14.00
2023-05-14T10:48:37.189Z,16.50
2023-05-14T10:51:06.484Z,15.00
2023-05-14T10:53:43.877Z,13.00
2023-05-14T10:56:14.719Z,12.00
2023-05-14T10:58:43.999Z,19.00
2023-05-14T11:01:12.820Z,18.00
2023-05-14T11:06:15.087Z,13.00
2023-05-14T11:08:44.094Z,15.00
2023-05-14T11:11:12.135Z,11.00
2023-05-14T11:13:40.328Z,11.00
2023-05-14T11:16:21.938Z,12.00
2023-05-14T11:19:02.261Z,11.00
2023-05-14T11:21:31.113Z,13.00
2023-05-14T11:26:31.871Z,9.00
2023-05-14T11:28:59.910Z,10.00
2023-05-14T11:31:27.957Z,11.00
2023-05-14T11:33:56.122Z,11.00
2023-05-14T11:36:24.095Z,10.00
2023-05-14T11:38:52.726Z,15.00
2023-05-14T11:41:23.328Z,11.00
2023-05-14T11:43:51.555Z,11.00
2023-05-14T11:46:19.780Z,10.00
2023-05-14T11:51:16.231Z,12.00
2023-05-14T11:53:45.075Z,16.00
2023-05-14T11:56:16.392Z,10.00
2023-05-14T12:01:16.401Z,10.00
2023-05-14T12:03:45.042Z,11.00
2023-05-14T12:06:13.043Z,13.00
2023-05-14T12:08:41.145Z,11.00
2023-05-14T12:11:09.268Z,12.00
2023-05-14T12:13:37.262Z,10.50
2023-05-14T12:16:05.442Z,9.00
2023-05-14T12:18:33.728Z,11.50
2023-05-14T12:21:07.998Z,12.50
2023-05-14T12:26:08.198Z,13.00
2023-05-14T12:28:38.503Z,9.33
2023-05-14T12:31:07.038Z,8.50
2023-05-14T12:33:34.938Z,10.00
2023-05-14T12:38:50.288Z,11.00
2023-05-14T12:41:18.365Z,13.00
2023-05-14T12:43:47.907Z,10.00
2023-05-14T12:46:16.776Z,8.00
2023-05-14T12:48:44.841Z,11.00
2023-05-14T12:51:12.913Z,11.00
2023-05-14T12:53:41.403Z,10.00
2023-05-14T12:56:09.565Z,13.00
2023-05-14T12:58:37.509Z,11.00
2023-05-14T13:01:05.668Z,12.00
2023-05-14T13:03:33.800Z,9.00
2023-05-14T13:06:01.871Z,11.00
2023-05-14T13:08:29.765Z,12.00
2023-05-14T13:10:57.672Z,8.00
2023-05-14T13:13:25.649Z,12.00
2023-05-14T13:15:53.548Z,8.00
2023-05-14T13:18:21.604Z,9.50
2023-05-14T13:20:49.534Z,11.00
2023-05-14T13:23:17.342Z,9.00
2023-05-14T13:25:46.522Z,9.00
2023-05-14T13:28:16.228Z,11.00
2023-05-14T13:31:03.111Z,11.00
2023-05-14T13:33:30.979Z,9.00
2023-05-14T13:35:59.082Z,9.00
2023-05-14T13:38:27.035Z,12.00
2023-05-14T13:40:57.366Z,11.50
2023-05-14T13:43:25.130Z,10.00
2023-05-14T13:45:53.078Z,12.00
2023-05-14T13:48:21.061Z,10.00
2023-05-14T13:50:49.862Z,10.00
2023-05-14T13:53:19.461Z,10.50
2023-05-14T13:55:49.169Z,16.00
2023-05-14T13:58:17.450Z,19.00
2023-05-14T14:00:45.729Z,17.00
2023-05-14T14:03:13.695Z,17.00
2023-05-14T14:05:41.885Z,19.00
2023-05-14T14:08:22.725Z,20.00
2023-05-14T14:10:52.509Z,22.00
2023-05-14T14:13:21.408Z,19.50
2023-05-14T14:15:50.044Z,19.67
2023-05-14T14:18:18.120Z,21.00
2023-05-14T14:20:46.156Z,19.50
2023-05-14T14:23:14.134Z,22.00
2023-05-14T14:25:42.108Z,21.00
2023-05-14T14:28:10.486Z,20.00
2023-05-14T14:30:38.758Z,21.00
2023-05-14T14:33:07.112Z,21.50
2023-05-14T14:35:35.923Z,20.00
2023-05-14T14:38:04.088Z,20.00
2023-05-14T14:40:33.884Z,18.50
2023-05-14T14:43:02.391Z,20.00
2023-05-14T14:45:30.528Z,21.00
2023-05-14T14:48:34.471Z,20.33
2023-05-14T14:51:02.648Z,22.00
2023-05-14T14:53:31.331Z,23.00
2023-05-14T14:56:00.624Z,21.00
2023-05-14T14:58:28.802Z,23.00
2023-05-14T15:00:57.174Z,21.50
2023-05-14T15:03:25.301Z,22.00
2023-05-14T15:05:53.912Z,19.00
2023-05-14T15:08:25.810Z,20.50
2023-05-14T15:10:57.355Z,20.00
2023-05-14T15:13:25.939Z,19.00
2023-05-14T15:15:54.037Z,19.50
2023-05-14T15:18:21.867Z,17.00
2023-05-14T15:20:50.266Z,18.00
2023-05-14T15:23:18.726Z,17.00
2023-05-14T15:25:47.059Z,18.00
2023-05-14T15:28:15.075Z,18.50
2023-05-14T15:30:43.356Z,22.50
2023-05-14T15:33:11.561Z,17.00
2023-05-14T15:35:39.588Z,21.00
2023-05-14T15:38:07.614Z,19.00
2023-05-14T15:40:35.770Z,21.67
2023-05-14T15:45:31.461Z,18.00
2023-05-14T15:47:59.372Z,19.00
2023-05-14T15:50:27.467Z,18.00
2023-05-14T15:52:55.389Z,21.50
2023-05-14T15:57:51.435Z,17.50
2023-05-14T16:00:20.261Z,21.00
2023-05-14T16:02:48.462Z,19.50
2023-05-14T16:05:16.482Z,19.33
2023-05-14T16:07:44.314Z,19.00
2023-05-14T16:10:12.477Z,19.50
2023-05-14T16:12:40.456Z,24.00
2023-05-14T16:15:09.512Z,19.00
2023-05-14T16:17:37.753Z,20.00
2023-05-14T16:20:06.599Z,21.00
2023-05-14T16:22:35.335Z,20.00
2023-05-14T16:25:04.973Z,22.00
2023-05-14T16:27:33.086Z,24.00
2023-05-14T16:30:00.911Z,21.00
2023-05-14T16:32:29.137Z,22.00
2023-05-14T16:34:57.188Z,26.00
2023-05-14T16:37:25.303Z,24.00
2023-05-14T16:39:53.737Z,23.00
2023-05-14T16:42:21.718Z,25.00
2023-05-14T16:44:49.891Z,21.00
2023-05-14T16:47:17.945Z,24.00
2023-05-14T16:49:45.871Z,24.00
2023-05-14T16:52:13.789Z,25.00
2023-05-14T16:54:41.743Z,23.00
2023-05-14T16:57:09.631Z,19.00
2023-05-14T16:59:37.675Z,21.50
2023-05-14T17:02:06.255Z,22.00
2023-05-14T17:04:38.832Z,22.00
2023-05-14T17:07:06.932Z,23.00
2023-05-14T17:09:35.002Z,23.00
2023-05-14T17:12:03.052Z,21.00
2023-05-14T17:14:31.841Z,19.00
2023-05-14T17:17:00.016Z,24.00
2023-05-14T17:19:27.939Z,24.00
2023-05-14T17:21:55.847Z,24.50
2023-05-14T17:24:23.867Z,25.67
2023-05-14T17:26:51.882Z,28.00
2023-05-14T17:29:19.844Z,37.00
2023-05-14T17:31:48.724Z,37.00
2023-05-14T17:34:17.791Z,31.50
2023-05-14T17:36:48.859Z,48.00
2023-05-14T17:41:44.800Z,37.00
2023-05-14T17:44:13.253Z,30.00
2023-05-14T17:46:42.376Z,30.50
2023-05-14T17:49:11.950Z,32.00
2023-05-14T17:51:39.947Z,29.50
2023-05-14T17:56:36.014Z,30.50
2023-05-14T17:59:04.240Z,30.00
2023-05-14T18:01:32.269Z,30.00
2023-05-14T18:04:00.507Z,36.00
2023-05-14T18:06:28.608Z,39.00
2023-05-14T18:08:59.237Z,39.00
2023-05-14T18:11:32.760Z,31.00
2023-05-14T18:14:01.068Z,34.00
2023-05-14T18:18:56.973Z,32.00
2023-05-14T18:23:53.194Z,30.00
2023-05-14T18:26:22.187Z,27.50
2023-05-14T18:28:50.112Z,29.50
2023-05-14T18:31:18.065Z,31.00
2023-05-14T18:33:46.515Z,33.00
2023-05-14T18:36:14.602Z,32.00
2023-05-14T18:38:42.444Z,28.00
2023-05-14T18:41:10.506Z,30.50
2023-05-14T18:43:38.479Z,30.00
2023-05-14T18:46:06.369Z,30.00
2023-05-14T18:48:34.620Z,30.00
2023-05-14T18:51:02.741Z,32.00
2023-05-14T18:53:31.563Z,34.50
2023-05-14T18:56:00.227Z,30.00
2023-05-14T18:58:28.339Z,31.00
2023-05-14T19:00:59.183Z,34.00
2023-05-14T19:03:27.248Z,30.00
2023-05-14T19:05:55.443Z,29.50
2023-05-14T19:08:23.492Z,28.00
2023-05-14T19:10:51.828Z,30.00
2023-05-14T19:13:19.881Z,28.00
2023-05-14T19:15:48.081Z,24.00
2023-05-14T19:18:17.692Z,32.00
2023-05-14T19:20:46.710Z,28.00
2023-05-14T19:23:14.679Z,33.00
2023-05-14T19:25:42.461Z,35.00
2023-05-14T19:28:10.518Z,29.00
2023-05-14T19:30:38.388Z,27.00
2023-05-14T19:33:06.392Z,25.50
2023-05-14T19:38:02.259Z,29.50
2023-05-14T19:40:30.257Z,25.00
2023-05-14T19:42:58.334Z,23.00
2023-05-14T19:45:26.337Z,25.50
2023-05-14T19:50:22.324Z,28.00
2023-05-14T19:52:50.365Z,26.50
2023-05-14T19:55:18.402Z,30.00
2023-05-14T19:57:46.318Z,27.00
2023-05-14T20:00:14.416Z,23.50
2023-05-14T20:02:43.321Z,29.00
2023-05-14T20:05:11.536Z,24.00
2023-05-14T20:10:10.797Z,31.50
2023-05-14T20:12:39.905Z,27.00
2023-05-14T20:15:08.454Z,24.00
2023-05-14T20:17:41.245Z,22.00
2023-05-14T20:20:10.997Z,23.50
2023-05-14T20:22:40.209Z,25.50
2023-05-14T20:25:10.925Z,23.00
2023-05-14T20:27:38.995Z,25.00
2023-05-14T20:30:09.154Z,21.50
2023-05-14T20:32:37.677Z,24.00
2023-05-14T20:35:07.862Z,23.00
2023-05-14T20:37:37.566Z,23.00
2023-05-14T20:40:07.318Z,25.00
2023-05-14T20:42:36.544Z,22.00
2023-05-14T20:45:07.006Z,19.50
2023-05-14T20:47:44.948Z,17.50
2023-05-14T20:50:15.876Z,22.00
2023-05-14T20:52:45.316Z,18.00
2023-05-14T20:55:14.774Z,21.50
2023-05-14T21:00:13.406Z,24.00
2023-05-14T21:02:42.419Z,19.00
2023-05-14T21:05:10.678Z,25.00
2023-05-14T21:07:39.495Z,26.00
2023-05-14T21:10:10.321Z,23.00
2023-05-14T21:12:42.824Z,34.50
2023-05-14T21:15:13.424Z,36.00
2023-05-14T21:17:44.157Z,42.00
2023-05-14T21:20:15.837Z,38.00
2023-05-14T21:22:47.293Z,34.00
2023-05-14T21:25:15.130Z,26.00
2023-05-14T21:27:45.433Z,33.50
2023-05-14T21:30:14.827Z,32.00
2023-05-14T21:32:49.037Z,26.50
2023-05-14T21:35:17.226Z,32.00
2023-05-14T21:37:45.184Z,32.00
2023-05-14T21:40:13.233Z,26.00
2023-05-14T21:42:41.142Z,26.50
2023-05-14T21:45:10.509Z,23.00
2023-05-14T21:47:38.574Z,20.00
2023-05-14T21:50:07.744Z,31.00
2023-05-14T21:52:37.972Z,31.50
2023-05-14T21:55:06.399Z,46.00
2023-05-14T21:57:34.849Z,51.50
2023-05-14T22:00:04.949Z,48.00
2023-05-14T22:02:32.834Z,34.00
2023-05-14T22:05:00.881Z,27.00
2023-05-14T22:07:29.061Z,21.00
2023-05-14T22:09:56.925Z,23.50
2023-05-14T22:12:24.898Z,22.00
2023-05-14T22:14:52.966Z,24.00
2023-05-14T22:17:21.985Z,23.50
2023-05-14T22:19:50.337Z,21.50
2023-05-14T22:22:18.456Z,24.50
2023-05-14T22:24:46.599Z,21.00
2023-05-14T22:27:14.453Z,22.00
2023-05-14T22:29:42.533Z,23.50
2023-05-14T22:32:10.589Z,22.00
2023-05-14T22:34:38.550Z,22.00
2023-05-14T22:37:06.698Z,21.00
2023-05-14T22:42:03.178Z,21.00
2023-05-14T22:44:31.105Z,21.00
2023-05-14T22:46:59.331Z,26.50
2023-05-14T22:49:27.250Z,21.00
2023-05-14T22:54:23.138Z,20.00
2023-05-14T22:56:51.604Z,21.00
2023-05-14T22:59:21.009Z,18.00
2023-05-14T23:01:50.980Z,20.50
2023-05-14T23:04:18.963Z,20.00
2023-05-14T23:06:47.201Z,18.00
2023-05-14T23:09:15.334Z,19.00
2023-05-14T23:11:43.405Z,22.00
2023-05-14T23:14:12.099Z,20.00
2023-05-14T23:16:40.372Z,20.00
2023-05-14T23:19:08.381Z,19.00
2023-05-14T23:21:36.463Z,22.50
2023-05-14T23:24:04.518Z,23.00
2023-05-14T23:26:32.455Z,23.00
2023-05-14T23:29:00.398Z,22.00
2023-05-14T23:31:28.437Z,20.00
2023-05-14T23:33:57.083Z,20.00
2023-05-14T23:36:25.015Z,20.00
2023-05-14T23:38:52.965Z,19.00
2023-05-14T23:41:21.891Z,21.00
2023-05-14T23:43:49.713Z,20.00
2023-05-14T23:46:17.833Z,22.00
2023-05-14T23:48:45.835Z,20.00
2023-05-14T23:53:41.647Z,19.00
2023-05-14T23:58:37.507Z,20.00
